sensor_id;sensor_type;location;lat;lon;timestamp;temperature;humidity
74081;SHT31;62438;52.228;6.864;2023-04-03T00:00:37;3.46;82.07
74081;SHT31;62438;52.228;6.864;2023-04-03T00:02:38;3.43;82.59
74081;SHT31;62438;52.228;6.864;2023-04-03T00:04:38;3.43;82.56
74081;SHT31;62438;52.228;6.864;2023-04-03T00:06:39;3.36;82.83
74081;SHT31;62438;52.228;6.864;2023-04-03T00:08:40;3.38;83.19
74081;SHT31;62438;52.228;6.864;2023-04-03T00:10:40;3.28;83.39
74081;SHT31;62438;52.228;6.864;2023-04-03T00:12:41;3.32;83.57
74081;SHT31;62438;52.228;6.864;2023-04-03T00:14:42;3.35;83.58
74081;SHT31;62438;52.228;6.864;2023-04-03T00:16:42;3.36;83.56
74081;SHT31;62438;52.228;6.864;2023-04-03T00:18:43;3.31;83.82
74081;SHT31;62438;52.228;6.864;2023-04-03T00:20:43;3.25;84.24
74081;SHT31;62438;52.228;6.864;2023-04-03T00:22:44;3.25;84.22
74081;SHT31;62438;52.228;6.864;2023-04-03T00:24:45;3.18;84.61
74081;SHT31;62438;52.228;6.864;2023-04-03T00:26:45;3.18;84.84
74081;SHT31;62438;52.228;6.864;2023-04-03T00:28:46;3.14;84.85
74081;SHT31;62438;52.228;6.864;2023-04-03T00:30:48;3.09;85.38
74081;SHT31;62438;52.228;6.864;2023-04-03T00:32:49;3.09;85.13
74081;SHT31;62438;52.228;6.864;2023-04-03T00:34:50;3.18;84.83
74081;SHT31;62438;52.228;6.864;2023-04-03T00:36:50;3.09;85.56
74081;SHT31;62438;52.228;6.864;2023-04-03T00:38:51;3.08;85.43
74081;SHT31;62438;52.228;6.864;2023-04-03T00:40:52;3.04;85.73
74081;SHT31;62438;52.228;6.864;2023-04-03T00:42:56;3.04;85.66
74081;SHT31;62438;52.228;6.864;2023-04-03T00:46:57;3.04;85.95
74081;SHT31;62438;52.228;6.864;2023-04-03T00:48:58;2.95;86.06
74081;SHT31;62438;52.228;6.864;2023-04-03T00:50:59;2.91;86.31
74081;SHT31;62438;52.228;6.864;2023-04-03T00:53:00;2.90;86.48
74081;SHT31;62438;52.228;6.864;2023-04-03T00:55:04;2.88;86.70
74081;SHT31;62438;52.228;6.864;2023-04-03T00:57:06;2.88;86.74
74081;SHT31;62438;52.228;6.864;2023-04-03T00:59:20;2.83;86.66
74081;SHT31;62438;52.228;6.864;2023-04-03T01:01:27;2.84;86.73
74081;SHT31;62438;52.228;6.864;2023-04-03T01:03:28;2.72;87.76
74081;SHT31;62438;52.228;6.864;2023-04-03T01:05:28;2.77;87.23
74081;SHT31;62438;52.228;6.864;2023-04-03T01:07:30;2.77;87.19
74081;SHT31;62438;52.228;6.864;2023-04-03T01:09:31;2.80;87.12
74081;SHT31;62438;52.228;6.864;2023-04-03T01:11:33;2.74;87.30
74081;SHT31;62438;52.228;6.864;2023-04-03T01:13:33;2.73;87.31
74081;SHT31;62438;52.228;6.864;2023-04-03T01:15:34;2.70;87.53
74081;SHT31;62438;52.228;6.864;2023-04-03T01:17:44;2.74;87.30
74081;SHT31;62438;52.228;6.864;2023-04-03T01:22:30;2.63;87.68
74081;SHT31;62438;52.228;6.864;2023-04-03T01:24:38;2.58;87.97
74081;SHT31;62438;52.228;6.864;2023-04-03T01:26:39;2.56;88.11
74081;SHT31;62438;52.228;6.864;2023-04-03T01:28:39;2.60;87.64
74081;SHT31;62438;52.228;6.864;2023-04-03T01:30:49;2.56;88.35
74081;SHT31;62438;52.228;6.864;2023-04-03T01:32:50;2.56;88.02
74081;SHT31;62438;52.228;6.864;2023-04-03T01:34:51;2.47;88.37
74081;SHT31;62438;52.228;6.864;2023-04-03T01:36:51;2.49;88.35
74081;SHT31;62438;52.228;6.864;2023-04-03T01:38:53;2.53;87.92
74081;SHT31;62438;52.228;6.864;2023-04-03T01:40:53;2.50;88.08
74081;SHT31;62438;52.228;6.864;2023-04-03T01:42:54;2.50;87.83
74081;SHT31;62438;52.228;6.864;2023-04-03T01:44:55;2.47;88.09
74081;SHT31;62438;52.228;6.864;2023-04-03T01:46:55;2.45;87.93
74081;SHT31;62438;52.228;6.864;2023-04-03T01:48:56;2.46;87.83
74081;SHT31;62438;52.228;6.864;2023-04-03T01:50:56;2.43;87.87
74081;SHT31;62438;52.228;6.864;2023-04-03T01:52:57;2.37;87.89
74081;SHT31;62438;52.228;6.864;2023-04-03T01:54:57;2.40;87.82
74081;SHT31;62438;52.228;6.864;2023-04-03T01:56:58;2.32;88.01
74081;SHT31;62438;52.228;6.864;2023-04-03T01:58:58;2.24;88.59
74081;SHT31;62438;52.228;6.864;2023-04-03T02:00:59;2.25;88.31
74081;SHT31;62438;52.228;6.864;2023-04-03T02:02:59;2.24;88.04
74081;SHT31;62438;52.228;6.864;2023-04-03T02:05:00;2.26;88.00
74081;SHT31;62438;52.228;6.864;2023-04-03T02:07:01;2.18;87.88
74081;SHT31;62438;52.228;6.864;2023-04-03T02:09:02;2.22;87.87
74081;SHT31;62438;52.228;6.864;2023-04-03T02:11:02;2.08;87.83
74081;SHT31;62438;52.228;6.864;2023-04-03T02:13:03;2.08;87.85
74081;SHT31;62438;52.228;6.864;2023-04-03T02:15:04;2.05;87.88
74081;SHT31;62438;52.228;6.864;2023-04-03T02:17:04;1.94;88.37
74081;SHT31;62438;52.228;6.864;2023-04-03T02:19:05;1.94;87.89
74081;SHT31;62438;52.228;6.864;2023-04-03T02:21:05;1.93;88.04
74081;SHT31;62438;52.228;6.864;2023-04-03T02:23:06;1.94;87.34
74081;SHT31;62438;52.228;6.864;2023-04-03T02:25:07;1.98;87.18
74081;SHT31;62438;52.228;6.864;2023-04-03T02:27:08;2.01;86.97
74081;SHT31;62438;52.228;6.864;2023-04-03T02:29:08;1.99;86.52
74081;SHT31;62438;52.228;6.864;2023-04-03T02:31:09;1.97;86.69
74081;SHT31;62438;52.228;6.864;2023-04-03T02:33:10;1.91;86.91
74081;SHT31;62438;52.228;6.864;2023-04-03T02:35:11;1.88;87.51
74081;SHT31;62438;52.228;6.864;2023-04-03T02:37:12;1.82;87.50
74081;SHT31;62438;52.228;6.864;2023-04-03T02:39:12;1.77;88.07
74081;SHT31;62438;52.228;6.864;2023-04-03T02:41:13;1.70;88.20
74081;SHT31;62438;52.228;6.864;2023-04-03T02:43:14;1.61;88.63
74081;SHT31;62438;52.228;6.864;2023-04-03T02:45:15;1.56;89.08
74081;SHT31;62438;52.228;6.864;2023-04-03T02:47:15;1.58;89.25
74081;SHT31;62438;52.228;6.864;2023-04-03T02:49:16;1.54;89.44
74081;SHT31;62438;52.228;6.864;2023-04-03T02:51:16;1.56;89.40
74081;SHT31;62438;52.228;6.864;2023-04-03T02:53:17;1.51;89.45
74081;SHT31;62438;52.228;6.864;2023-04-03T02:55:17;1.47;89.68
74081;SHT31;62438;52.228;6.864;2023-04-03T02:57:18;1.57;89.04
74081;SHT31;62438;52.228;6.864;2023-04-03T02:59:19;1.57;89.00
74081;SHT31;62438;52.228;6.864;2023-04-03T03:01:20;1.51;89.16
74081;SHT31;62438;52.228;6.864;2023-04-03T03:03:21;1.39;89.60
74081;SHT31;62438;52.228;6.864;2023-04-03T03:05:21;1.39;89.40
74081;SHT31;62438;52.228;6.864;2023-04-03T03:07:22;1.46;88.91
74081;SHT31;62438;52.228;6.864;2023-04-03T03:09:22;1.43;88.75
74081;SHT31;62438;52.228;6.864;2023-04-03T03:11:50;1.43;88.67
74081;SHT31;62438;52.228;6.864;2023-04-03T03:13:50;1.43;88.51
74081;SHT31;62438;52.228;6.864;2023-04-03T03:15:51;1.36;89.06
74081;SHT31;62438;52.228;6.864;2023-04-03T03:17:52;1.43;88.31
74081;SHT31;62438;52.228;6.864;2023-04-03T03:19:52;1.36;89.05
74081;SHT31;62438;52.228;6.864;2023-04-03T03:21:53;1.37;88.09
74081;SHT31;62438;52.228;6.864;2023-04-03T03:23:53;1.36;88.20
74081;SHT31;62438;52.228;6.864;2023-04-03T03:25:59;1.40;87.82
74081;SHT31;62438;52.228;6.864;2023-04-03T03:27:59;1.40;87.78
74081;SHT31;62438;52.228;6.864;2023-04-03T03:30:00;1.35;88.03
74081;SHT31;62438;52.228;6.864;2023-04-03T03:32:00;1.35;87.95
74081;SHT31;62438;52.228;6.864;2023-04-03T03:34:01;1.32;88.18
74081;SHT31;62438;52.228;6.864;2023-04-03T03:36:02;1.20;88.58
74081;SHT31;62438;52.228;6.864;2023-04-03T03:38:02;1.20;88.85
74081;SHT31;62438;52.228;6.864;2023-04-03T03:40:03;1.15;88.87
74081;SHT31;62438;52.228;6.864;2023-04-03T03:42:04;1.09;89.06
74081;SHT31;62438;52.228;6.864;2023-04-03T03:44:04;1.08;89.09
74081;SHT31;62438;52.228;6.864;2023-04-03T03:46:05;1.03;89.30
74081;SHT31;62438;52.228;6.864;2023-04-03T03:48:05;1.05;89.23
74081;SHT31;62438;52.228;6.864;2023-04-03T03:50:06;0.93;89.84
74081;SHT31;62438;52.228;6.864;2023-04-03T03:52:07;0.82;90.19
74081;SHT31;62438;52.228;6.864;2023-04-03T03:54:10;0.87;90.01
74081;SHT31;62438;52.228;6.864;2023-04-03T03:56:11;0.91;89.72
74081;SHT31;62438;52.228;6.864;2023-04-03T03:58:12;0.91;89.72
74081;SHT31;62438;52.228;6.864;2023-04-03T04:00:13;0.93;89.37
74081;SHT31;62438;52.228;6.864;2023-04-03T04:02:13;0.92;89.52
74081;SHT31;62438;52.228;6.864;2023-04-03T04:04:14;0.99;88.97
74081;SHT31;62438;52.228;6.864;2023-04-03T04:06:14;0.85;89.42
74081;SHT31;62438;52.228;6.864;2023-04-03T04:08:15;0.78;90.04
74081;SHT31;62438;52.228;6.864;2023-04-03T04:10:16;0.75;89.78
74081;SHT31;62438;52.228;6.864;2023-04-03T04:12:16;0.67;90.16
74081;SHT31;62438;52.228;6.864;2023-04-03T04:14:16;0.64;90.23
74081;SHT31;62438;52.228;6.864;2023-04-03T04:16:17;0.58;90.28
74081;SHT31;62438;52.228;6.864;2023-04-03T04:18:17;0.61;90.34
74081;SHT31;62438;52.228;6.864;2023-04-03T04:20:20;0.53;90.85
74081;SHT31;62438;52.228;6.864;2023-04-03T04:22:20;0.60;90.05
74081;SHT31;62438;52.228;6.864;2023-04-03T04:24:21;0.62;89.96
74081;SHT31;62438;52.228;6.864;2023-04-03T04:26:22;0.47;90.69
74081;SHT31;62438;52.228;6.864;2023-04-03T04:28:23;0.47;90.54
74081;SHT31;62438;52.228;6.864;2023-04-03T04:30:24;0.44;90.81
74081;SHT31;62438;52.228;6.864;2023-04-03T04:32:24;0.46;90.59
74081;SHT31;62438;52.228;6.864;2023-04-03T04:34:25;0.39;90.78
74081;SHT31;62438;52.228;6.864;2023-04-03T04:36:25;0.41;90.36
74081;SHT31;62438;52.228;6.864;2023-04-03T04:38:26;0.43;90.43
74081;SHT31;62438;52.228;6.864;2023-04-03T04:40:26;0.37;90.67
74081;SHT31;62438;52.228;6.864;2023-04-03T04:42:27;0.23;91.63
74081;SHT31;62438;52.228;6.864;2023-04-03T04:44:27;0.20;91.29
74081;SHT31;62438;52.228;6.864;2023-04-03T04:46:28;0.16;91.40
74081;SHT31;62438;52.228;6.864;2023-04-03T04:48:28;0.10;91.52
74081;SHT31;62438;52.228;6.864;2023-04-03T04:50:29;-0.01;92.31
74081;SHT31;62438;52.228;6.864;2023-04-03T04:52:29;0.02;92.26
74081;SHT31;62438;52.228;6.864;2023-04-03T04:54:30;0.14;91.27
74081;SHT31;62438;52.228;6.864;2023-04-03T04:56:30;0.14;91.72
74081;SHT31;62438;52.228;6.864;2023-04-03T04:58:31;0.20;91.03
74081;SHT31;62438;52.228;6.864;2023-04-03T05:00:31;0.11;91.34
74081;SHT31;62438;52.228;6.864;2023-04-03T05:02:32;0.11;91.54
74081;SHT31;62438;52.228;6.864;2023-04-03T05:04:32;0.13;91.32
74081;SHT31;62438;52.228;6.864;2023-04-03T05:06:33;0.06;91.55
74081;SHT31;62438;52.228;6.864;2023-04-03T05:08:35;0.09;91.47
74081;SHT31;62438;52.228;6.864;2023-04-03T05:10:35;0.16;91.15
74081;SHT31;62438;52.228;6.864;2023-04-03T05:12:36;0.11;91.39
74081;SHT31;62438;52.228;6.864;2023-04-03T05:14:36;0.16;91.66
74081;SHT31;62438;52.228;6.864;2023-04-03T05:16:37;0.19;90.89
74081;SHT31;62438;52.228;6.864;2023-04-03T05:18:38;0.17;90.84
74081;SHT31;62438;52.228;6.864;2023-04-03T05:20:39;0.19;90.55
74081;SHT31;62438;52.228;6.864;2023-04-03T05:22:40;0.20;90.53
74081;SHT31;62438;52.228;6.864;2023-04-03T05:24:40;0.23;90.31
74081;SHT31;62438;52.228;6.864;2023-04-03T05:26:41;0.23;90.46
74081;SHT31;62438;52.228;6.864;2023-04-03T05:28:42;0.19;90.26
74081;SHT31;62438;52.228;6.864;2023-04-03T05:30:42;0.21;90.31
74081;SHT31;62438;52.228;6.864;2023-04-03T05:32:43;0.24;89.95
74081;SHT31;62438;52.228;6.864;2023-04-03T05:34:44;0.29;89.31
74081;SHT31;62438;52.228;6.864;2023-04-03T05:36:45;0.31;89.51
74081;SHT31;62438;52.228;6.864;2023-04-03T05:38:46;0.33;89.36
74081;SHT31;62438;52.228;6.864;2023-04-03T05:40:46;0.37;89.42
74081;SHT31;62438;52.228;6.864;2023-04-03T05:42:47;0.40;89.22
74081;SHT31;62438;52.228;6.864;2023-04-03T05:44:47;0.41;88.96
74081;SHT31;62438;52.228;6.864;2023-04-03T05:46:50;0.39;89.47
74081;SHT31;62438;52.228;6.864;2023-04-03T05:48:50;0.41;88.71
74081;SHT31;62438;52.228;6.864;2023-04-03T05:50:51;0.47;88.70
74081;SHT31;62438;52.228;6.864;2023-04-03T05:52:55;0.50;88.43
74081;SHT31;62438;52.228;6.864;2023-04-03T05:54:57;0.50;88.55
74081;SHT31;62438;52.228;6.864;2023-04-03T05:57:02;0.62;88.14
74081;SHT31;62438;52.228;6.864;2023-04-03T05:59:05;0.60;88.02
74081;SHT31;62438;52.228;6.864;2023-04-03T06:01:07;0.65;87.76
74081;SHT31;62438;52.228;6.864;2023-04-03T06:03:09;0.72;87.81
74081;SHT31;62438;52.228;6.864;2023-04-03T06:05:09;0.74;87.87
74081;SHT31;62438;52.228;6.864;2023-04-03T06:07:17;0.84;87.26
74081;SHT31;62438;52.228;6.864;2023-04-03T06:09:21;0.78;87.17
74081;SHT31;62438;52.228;6.864;2023-04-03T06:11:22;0.85;87.20
74081;SHT31;62438;52.228;6.864;2023-04-03T06:13:22;0.81;87.15
74081;SHT31;62438;52.228;6.864;2023-04-03T06:15:24;0.82;87.01
74081;SHT31;62438;52.228;6.864;2023-04-03T06:17:25;0.89;87.20
74081;SHT31;62438;52.228;6.864;2023-04-03T06:19:25;0.91;86.73
74081;SHT31;62438;52.228;6.864;2023-04-03T06:21:26;0.98;86.20
74081;SHT31;62438;52.228;6.864;2023-04-03T06:23:26;1.15;85.89
74081;SHT31;62438;52.228;6.864;2023-04-03T06:25:27;1.19;85.06
74081;SHT31;62438;52.228;6.864;2023-04-03T06:27:28;1.25;85.22
74081;SHT31;62438;52.228;6.864;2023-04-03T06:29:29;1.20;84.04
74081;SHT31;62438;52.228;6.864;2023-04-03T06:31:29;1.39;84.59
74081;SHT31;62438;52.228;6.864;2023-04-03T06:33:30;1.42;83.67
74081;SHT31;62438;52.228;6.864;2023-04-03T06:35:30;1.44;82.63
74081;SHT31;62438;52.228;6.864;2023-04-03T06:37:31;1.58;82.88
74081;SHT31;62438;52.228;6.864;2023-04-03T06:39:32;1.63;82.39
74081;SHT31;62438;52.228;6.864;2023-04-03T06:41:33;1.79;82.41
74081;SHT31;62438;52.228;6.864;2023-04-03T06:43:33;1.88;81.32
74081;SHT31;62438;52.228;6.864;2023-04-03T06:45:34;1.98;80.50
74081;SHT31;62438;52.228;6.864;2023-04-03T06:47:36;2.12;80.20
74081;SHT31;62438;52.228;6.864;2023-04-03T06:49:36;2.06;79.47
74081;SHT31;62438;52.228;6.864;2023-04-03T06:51:37;2.24;79.11
74081;SHT31;62438;52.228;6.864;2023-04-03T06:53:38;2.29;78.59
74081;SHT31;62438;52.228;6.864;2023-04-03T06:55:38;2.47;77.46
74081;SHT31;62438;52.228;6.864;2023-04-03T06:57:39;2.49;77.34
74081;SHT31;62438;52.228;6.864;2023-04-03T06:59:39;2.53;77.02
74081;SHT31;62438;52.228;6.864;2023-04-03T07:01:40;2.60;77.26
74081;SHT31;62438;52.228;6.864;2023-04-03T07:03:41;2.72;76.23
74081;SHT31;62438;52.228;6.864;2023-04-03T07:05:41;2.70;75.84
74081;SHT31;62438;52.228;6.864;2023-04-03T07:07:44;2.84;75.22
74081;SHT31;62438;52.228;6.864;2023-04-03T07:09:45;2.85;73.76
74081;SHT31;62438;52.228;6.864;2023-04-03T07:11:47;3.03;74.33
74081;SHT31;62438;52.228;6.864;2023-04-03T07:13:48;3.11;73.88
74081;SHT31;62438;52.228;6.864;2023-04-03T07:15:49;3.11;73.41
74081;SHT31;62438;52.228;6.864;2023-04-03T07:17:50;3.03;72.51
74081;SHT31;62438;52.228;6.864;2023-04-03T07:19:51;3.28;72.81
74081;SHT31;62438;52.228;6.864;2023-04-03T07:21:51;3.38;71.13
74081;SHT31;62438;52.228;6.864;2023-04-03T07:23:52;3.69;70.75
74081;SHT31;62438;52.228;6.864;2023-04-03T07:25:52;4.08;69.59
74081;SHT31;62438;52.228;6.864;2023-04-03T07:27:53;4.24;68.04
74081;SHT31;62438;52.228;6.864;2023-04-03T07:29:54;4.34;68.06
74081;SHT31;62438;52.228;6.864;2023-04-03T07:31:56;4.46;67.20
74081;SHT31;62438;52.228;6.864;2023-04-03T07:33:56;4.65;65.41
74081;SHT31;62438;52.228;6.864;2023-04-03T07:35:57;4.87;64.26
74081;SHT31;62438;52.228;6.864;2023-04-03T07:37:58;5.00;64.59
74081;SHT31;62438;52.228;6.864;2023-04-03T07:39:59;5.03;64.46
74081;SHT31;62438;52.228;6.864;2023-04-03T07:42:00;5.21;63.55
74081;SHT31;62438;52.228;6.864;2023-04-03T07:44:01;4.96;63.07
74081;SHT31;62438;52.228;6.864;2023-04-03T07:46:04;4.79;63.47
74081;SHT31;62438;52.228;6.864;2023-04-03T07:48:05;5.28;63.49
74081;SHT31;62438;52.228;6.864;2023-04-03T07:50:06;5.35;61.79
74081;SHT31;62438;52.228;6.864;2023-04-03T07:52:07;5.68;60.98
74081;SHT31;62438;52.228;6.864;2023-04-03T07:54:09;6.10;60.81
74081;SHT31;62438;52.228;6.864;2023-04-03T07:56:09;5.52;59.41
74081;SHT31;62438;52.228;6.864;2023-04-03T07:58:11;5.69;59.45
74081;SHT31;62438;52.228;6.864;2023-04-03T08:00:12;5.99;59.11
74081;SHT31;62438;52.228;6.864;2023-04-03T08:02:13;5.83;56.97
74081;SHT31;62438;52.228;6.864;2023-04-03T08:04:13;5.80;56.75
74081;SHT31;62438;52.228;6.864;2023-04-03T08:06:16;6.31;58.41
74081;SHT31;62438;52.228;6.864;2023-04-03T08:08:19;6.68;57.88
74081;SHT31;62438;52.228;6.864;2023-04-03T08:10:20;6.52;56.30
74081;SHT31;62438;52.228;6.864;2023-04-03T08:12:20;6.74;56.61
74081;SHT31;62438;52.228;6.864;2023-04-03T08:14:21;6.98;56.00
74081;SHT31;62438;52.228;6.864;2023-04-03T08:16:23;6.89;54.41
74081;SHT31;62438;52.228;6.864;2023-04-03T08:18:27;6.91;52.99
74081;SHT31;62438;52.228;6.864;2023-04-03T08:20:28;6.77;53.27
74081;SHT31;62438;52.228;6.864;2023-04-03T08:22:29;6.92;53.73
74081;SHT31;62438;52.228;6.864;2023-04-03T08:24:29;7.34;53.40
74081;SHT31;62438;52.228;6.864;2023-04-03T08:26:30;6.81;51.39
74081;SHT31;62438;52.228;6.864;2023-04-03T08:28:31;6.63;53.25
74081;SHT31;62438;52.228;6.864;2023-04-03T08:30:31;6.98;53.36
74081;SHT31;62438;52.228;6.864;2023-04-03T08:32:33;7.00;51.79
74081;SHT31;62438;52.228;6.864;2023-04-03T08:34:34;7.09;50.84
74081;SHT31;62438;52.228;6.864;2023-04-03T08:36:37;7.67;51.20
74081;SHT31;62438;52.228;6.864;2023-04-03T08:38:37;6.98;51.01
74081;SHT31;62438;52.228;6.864;2023-04-03T08:40:39;7.07;50.25
74081;SHT31;62438;52.228;6.864;2023-04-03T08:42:58;7.47;49.85
74081;SHT31;62438;52.228;6.864;2023-04-03T08:47:24;7.61;48.37
74081;SHT31;62438;52.228;6.864;2023-04-03T08:49:33;7.74;49.75
74081;SHT31;62438;52.228;6.864;2023-04-03T08:51:35;7.33;49.03
74081;SHT31;62438;52.228;6.864;2023-04-03T08:53:40;7.50;48.04
74081;SHT31;62438;52.228;6.864;2023-04-03T08:55:46;7.75;46.91
74081;SHT31;62438;52.228;6.864;2023-04-03T08:57:48;7.63;46.11
74081;SHT31;62438;52.228;6.864;2023-04-03T08:59:49;7.67;43.50
74081;SHT31;62438;52.228;6.864;2023-04-03T09:01:49;7.98;42.48
74081;SHT31;62438;52.228;6.864;2023-04-03T09:03:51;8.29;43.83
74081;SHT31;62438;52.228;6.864;2023-04-03T09:08:05;8.10;41.43
74081;SHT31;62438;52.228;6.864;2023-04-03T09:10:10;8.17;41.38
74081;SHT31;62438;52.228;6.864;2023-04-03T09:12:22;7.77;41.05
74081;SHT31;62438;52.228;6.864;2023-04-03T09:19:15;8.09;41.33
74081;SHT31;62438;52.228;6.864;2023-04-03T09:21:38;8.13;40.13
74081;SHT31;62438;52.228;6.864;2023-04-03T09:23:52;8.13;40.08
74081;SHT31;62438;52.228;6.864;2023-04-03T09:26:01;8.07;38.91
74081;SHT31;62438;52.228;6.864;2023-04-03T09:28:05;8.17;39.99
74081;SHT31;62438;52.228;6.864;2023-04-03T09:30:14;8.07;40.05
74081;SHT31;62438;52.228;6.864;2023-04-03T09:32:24;8.05;39.36
74081;SHT31;62438;52.228;6.864;2023-04-03T09:34:27;8.33;39.92
74081;SHT31;62438;52.228;6.864;2023-04-03T09:36:50;8.30;39.21
74081;SHT31;62438;52.228;6.864;2023-04-03T09:39:04;8.15;38.21
74081;SHT31;62438;52.228;6.864;2023-04-03T09:41:18;8.26;39.54
74081;SHT31;62438;52.228;6.864;2023-04-03T09:47:35;8.59;37.89
74081;SHT31;62438;52.228;6.864;2023-04-03T09:49:36;8.59;37.41
74081;SHT31;62438;52.228;6.864;2023-04-03T09:51:37;8.64;38.56
74081;SHT31;62438;52.228;6.864;2023-04-03T09:53:40;8.42;37.30
74081;SHT31;62438;52.228;6.864;2023-04-03T09:55:43;8.26;38.74
74081;SHT31;62438;52.228;6.864;2023-04-03T09:57:45;8.52;38.57
74081;SHT31;62438;52.228;6.864;2023-04-03T09:59:56;8.84;37.41
74081;SHT31;62438;52.228;6.864;2023-04-03T10:02:28;8.67;37.33
74081;SHT31;62438;52.228;6.864;2023-04-03T10:04:39;8.56;37.97
74081;SHT31;62438;52.228;6.864;2023-04-03T10:06:52;8.84;38.46
74081;SHT31;62438;52.228;6.864;2023-04-03T10:09:01;8.63;38.59
74081;SHT31;62438;52.228;6.864;2023-04-03T10:13:17;9.04;38.48
74081;SHT31;62438;52.228;6.864;2023-04-03T10:15:20;9.04;37.74
74081;SHT31;62438;52.228;6.864;2023-04-03T10:19:58;9.02;37.70
74081;SHT31;62438;52.228;6.864;2023-04-03T10:22:15;9.26;38.47
74081;SHT31;62438;52.228;6.864;2023-04-03T10:24:59;9.40;38.05
74081;SHT31;62438;52.228;6.864;2023-04-03T10:27:10;9.57;37.09
74081;SHT31;62438;52.228;6.864;2023-04-03T10:29:26;9.16;37.41
74081;SHT31;62438;52.228;6.864;2023-04-03T10:36:06;9.46;37.85
74081;SHT31;62438;52.228;6.864;2023-04-03T10:40:34;10.18;37.71
74081;SHT31;62438;52.228;6.864;2023-04-03T10:47:25;10.14;35.13
74081;SHT31;62438;52.228;6.864;2023-04-03T10:54:12;10.83;38.11
74081;SHT31;62438;52.228;6.864;2023-04-03T10:56:25;10.59;36.02
74081;SHT31;62438;52.228;6.864;2023-04-03T10:58:35;10.41;36.92
74081;SHT31;62438;52.228;6.864;2023-04-03T11:00:47;10.37;36.11
74081;SHT31;62438;52.228;6.864;2023-04-03T11:02:54;10.70;36.23
74081;SHT31;62438;52.228;6.864;2023-04-03T11:05:06;10.32;36.31
74081;SHT31;62438;52.228;6.864;2023-04-03T11:07:23;10.76;37.34
74081;SHT31;62438;52.228;6.864;2023-04-03T11:09:40;10.69;36.60
74081;SHT31;62438;52.228;6.864;2023-04-03T11:11:43;10.49;36.76
74081;SHT31;62438;52.228;6.864;2023-04-03T11:13:53;10.28;36.64
74081;SHT31;62438;52.228;6.864;2023-04-03T11:15:56;9.91;37.66
74081;SHT31;62438;52.228;6.864;2023-04-03T11:18:02;10.39;37.86
74081;SHT31;62438;52.228;6.864;2023-04-03T11:20:14;11.03;39.03
74081;SHT31;62438;52.228;6.864;2023-04-03T11:22:27;10.68;37.96
74081;SHT31;62438;52.228;6.864;2023-04-03T11:24:31;10.90;39.19
74081;SHT31;62438;52.228;6.864;2023-04-03T11:26:36;10.63;37.69
74081;SHT31;62438;52.228;6.864;2023-04-03T11:28:39;10.83;37.64
74081;SHT31;62438;52.228;6.864;2023-04-03T11:35:20;10.41;38.12
74081;SHT31;62438;52.228;6.864;2023-04-03T11:37:43;10.70;38.95
74081;SHT31;62438;52.228;6.864;2023-04-03T11:39:51;11.27;38.65
74081;SHT31;62438;52.228;6.864;2023-04-03T11:41:52;10.51;38.57
74081;SHT31;62438;52.228;6.864;2023-04-03T11:44:00;11.10;37.98
74081;SHT31;62438;52.228;6.864;2023-04-03T11:46:05;10.69;38.53
74081;SHT31;62438;52.228;6.864;2023-04-03T11:56:40;10.41;39.19
74081;SHT31;62438;52.228;6.864;2023-04-03T12:01:43;11.20;38.68
74081;SHT31;62438;52.228;6.864;2023-04-03T12:05:45;11.17;39.33
74081;SHT31;62438;52.228;6.864;2023-04-03T12:10:24;11.14;38.11
74081;SHT31;62438;52.228;6.864;2023-04-03T12:12:39;10.65;38.99
74081;SHT31;62438;52.228;6.864;2023-04-03T12:14:40;10.75;38.28
74081;SHT31;62438;52.228;6.864;2023-04-03T12:21:16;10.90;39.74
74081;SHT31;62438;52.228;6.864;2023-04-03T12:28:21;10.79;39.77
74081;SHT31;62438;52.228;6.864;2023-04-03T12:30:25;10.92;40.01
74081;SHT31;62438;52.228;6.864;2023-04-03T12:35:03;10.41;38.73
74081;SHT31;62438;52.228;6.864;2023-04-03T12:39:36;10.30;39.61
74081;SHT31;62438;52.228;6.864;2023-04-03T12:46:24;10.96;39.29
74081;SHT31;62438;52.228;6.864;2023-04-03T12:48:29;10.53;39.08
74081;SHT31;62438;52.228;6.864;2023-04-03T12:50:33;10.55;40.02
74081;SHT31;62438;52.228;6.864;2023-04-03T12:52:44;10.59;40.73
74081;SHT31;62438;52.228;6.864;2023-04-03T12:54:46;10.90;40.18
74081;SHT31;62438;52.228;6.864;2023-04-03T12:56:47;10.63;39.57
74081;SHT31;62438;52.228;6.864;2023-04-03T12:58:49;10.93;40.50
74081;SHT31;62438;52.228;6.864;2023-04-03T13:01:09;11.07;39.28
74081;SHT31;62438;52.228;6.864;2023-04-03T13:03:23;11.39;39.82
74081;SHT31;62438;52.228;6.864;2023-04-03T13:05:24;11.23;38.94
74081;SHT31;62438;52.228;6.864;2023-04-03T13:07:32;11.23;39.24
74081;SHT31;62438;52.228;6.864;2023-04-03T13:09:33;11.34;38.27
74081;SHT31;62438;52.228;6.864;2023-04-03T13:11:37;10.51;39.46
74081;SHT31;62438;52.228;6.864;2023-04-03T13:13:38;10.73;40.50
74081;SHT31;62438;52.228;6.864;2023-04-03T13:15:45;11.03;41.58
74081;SHT31;62438;52.228;6.864;2023-04-03T13:17:46;11.14;40.15
74081;SHT31;62438;52.228;6.864;2023-04-03T13:19:49;11.26;40.12
74081;SHT31;62438;52.228;6.864;2023-04-03T13:21:59;10.97;39.60
74081;SHT31;62438;52.228;6.864;2023-04-03T13:24:02;10.77;39.22
74081;SHT31;62438;52.228;6.864;2023-04-03T13:26:04;10.58;40.47
74081;SHT31;62438;52.228;6.864;2023-04-03T13:28:06;10.81;41.23
74081;SHT31;62438;52.228;6.864;2023-04-03T13:30:20;11.30;41.31
74081;SHT31;62438;52.228;6.864;2023-04-03T13:32:23;10.97;40.34
74081;SHT31;62438;52.228;6.864;2023-04-03T13:34:27;10.80;41.60
74081;SHT31;62438;52.228;6.864;2023-04-03T13:36:32;11.07;41.89
74081;SHT31;62438;52.228;6.864;2023-04-03T13:38:34;11.14;40.98
74081;SHT31;62438;52.228;6.864;2023-04-03T13:40:48;10.95;41.35
74081;SHT31;62438;52.228;6.864;2023-04-03T13:43:03;10.90;42.87
74081;SHT31;62438;52.228;6.864;2023-04-03T13:45:09;11.24;42.07
74081;SHT31;62438;52.228;6.864;2023-04-03T13:49:35;11.01;41.48
74081;SHT31;62438;52.228;6.864;2023-04-03T13:51:38;11.16;41.56
74081;SHT31;62438;52.228;6.864;2023-04-03T13:54:29;11.26;39.67
74081;SHT31;62438;52.228;6.864;2023-04-03T13:56:21;11.52;39.58
74081;SHT31;62438;52.228;6.864;2023-04-03T13:58:25;11.31;40.50
74081;SHT31;62438;52.228;6.864;2023-04-03T14:02:33;10.92;40.55
74081;SHT31;62438;52.228;6.864;2023-04-03T14:06:40;10.73;42.07
74081;SHT31;62438;52.228;6.864;2023-04-03T14:08:41;10.63;41.78
74081;SHT31;62438;52.228;6.864;2023-04-03T14:10:42;10.77;42.11
74081;SHT31;62438;52.228;6.864;2023-04-03T14:12:42;10.27;42.22
74081;SHT31;62438;52.228;6.864;2023-04-03T14:14:44;10.44;42.16
74081;SHT31;62438;52.228;6.864;2023-04-03T14:16:50;10.20;43.04
74081;SHT31;62438;52.228;6.864;2023-04-03T14:18:52;9.74;43.69
74081;SHT31;62438;52.228;6.864;2023-04-03T14:20:53;10.00;45.21
74081;SHT31;62438;52.228;6.864;2023-04-03T14:22:54;9.66;44.00
74081;SHT31;62438;52.228;6.864;2023-04-03T14:24:55;9.86;45.29
74081;SHT31;62438;52.228;6.864;2023-04-03T14:26:56;9.44;43.85
74081;SHT31;62438;52.228;6.864;2023-04-03T14:28:57;9.19;44.61
74081;SHT31;62438;52.228;6.864;2023-04-03T14:30:57;9.15;46.07
74081;SHT31;62438;52.228;6.864;2023-04-03T14:32:58;9.07;45.09